Time;durP1;ratioP1;P1;durP2;ratioP2;P2;SDS_P1;SDS_P2;PMS_P1;PMS_P2;Temp;Humidity;BMP_temperature;BMP_pressure;BME280_temperature;BME280_humidity;BME280_pressure;Samples;Min_cycle;Max_cycle;Signal;HPM_P1;HPM_P2
2022/01/13 00:02:31;;;;;;;4.97;3.17;;;-5.50;99.90;-6.30;98500.00;;;;5000619;28;20471;-72
2022/01/13 00:05:26;;;;;;;2.47;2.13;;;-5.40;99.90;-6.70;98495.00;;;;4996004;28;20441;-72
2022/01/13 00:08:17;;;;;;;7.03;2.93;;;-5.50;99.90;-6.40;98507.00;;;;4998382;28;20813;-71
2022/01/13 00:11:07;;;;;;;3.43;2.83;;;-5.50;99.90;-6.20;98518.00;;;;5005325;28;20557;-72
2022/01/13 00:14:21;;;;;;;4.23;2.63;;;-5.40;99.90;-6.00;98518.00;;;;4999413;28;20980;-72
2022/01/13 00:17:24;;;;;;;4.40;3.57;;;-5.40;99.90;-6.20;98506.00;;;;5002519;28;20818;-72
2022/01/13 00:20:31;;;;;;;3.07;2.87;;;-5.40;99.90;-6.10;98491.00;;;;5003686;28;20441;-72
2022/01/13 00:23:43;;;;;;;6.23;3.83;;;-5.30;99.90;-6.20;98501.00;;;;5005635;28;20448;-71
2022/01/13 00:26:35;;;;;;;5.07;3.57;;;-5.40;99.90;-6.20;98494.00;;;;5003497;28;20948;-73
2022/01/13 00:29:29;;;;;;;5.30;2.83;;;-5.30;99.90;-6.20;98496.00;;;;5005316;28;20437;-71
2022/01/13 00:32:20;;;;;;;4.13;2.73;;;-5.30;99.90;-6.20;98496.00;;;;5007507;28;20460;-71
2022/01/13 00:35:10;;;;;;;7.63;3.20;;;-5.40;99.90;-6.10;98507.00;;;;5005863;28;20468;-71
2022/01/13 00:37:59;;;;;;;2.67;2.23;;;-5.30;99.90;-5.90;98494.00;;;;5006494;28;20468;-70
2022/01/13 00:40:48;;;;;;;3.17;2.40;;;-5.30;99.90;-6.20;98514.00;;;;5006104;28;20444;-73
2022/01/13 00:43:41;;;;;;;10.17;2.83;;;-5.20;99.90;-6.10;98513.00;;;;5007242;28;20951;-69
2022/01/13 00:46:40;;;;;;;5.73;3.43;;;-5.30;99.90;-6.20;98523.00;;;;4999224;28;20433;-70
2022/01/13 00:49:29;;;;;;;3.10;2.47;;;-5.30;99.90;-6.30;98509.00;;;;5006846;28;20433;-70
2022/01/13 00:52:18;;;;;;;2.13;1.87;;;-5.30;99.90;-6.10;98534.00;;;;5007352;28;20441;-72
2022/01/13 00:55:14;;;;;;;2.40;2.20;;;-5.20;99.90;-6.10;98519.00;;;;5001599;28;20980;-72
2022/01/13 00:58:03;;;;;;;2.33;2.10;;;-5.30;99.90;-6.20;98535.00;;;;5001889;28;20445;-72
2022/01/13 01:00:53;;;;;;;2.30;1.93;;;-5.20;99.90;-6.10;98522.00;;;;5007013;28;21006;-71
2022/01/13 01:03:42;;;;;;;3.33;2.33;;;-5.20;99.90;-6.10;98528.00;;;;5005890;28;20444;-70
2022/01/13 01:06:32;;;;;;;4.30;2.07;;;-4.40;99.90;-6.20;98519.00;;;;5006582;28;20429;-71
2022/01/13 01:09:30;;;;;;;1.90;1.80;;;-5.20;99.90;-6.00;98529.00;;;;5007277;28;20425;-72
2022/01/13 01:12:20;;;;;;;5.90;1.80;;;-5.10;99.90;-6.10;98541.00;;;;5005763;28;20445;-71
2022/01/13 01:15:11;;;;;;;1.57;1.03;;;-5.20;99.90;-6.10;98531.00;;;;5006371;28;20471;-71
2022/01/13 01:18:12;;;;;;;2.30;1.63;;;-5.10;99.90;-6.10;98531.00;;;;5006583;28;20437;-71
2022/01/13 01:24:29;;;;;;;1.67;1.57;;;-5.10;99.90;-5.80;98526.00;;;;4993114;28;20799;-71
2022/01/13 01:27:21;;;;;;;1.83;1.70;;;-4.90;99.90;-5.80;98525.00;;;;4993635;28;20429;-71
2022/01/13 01:30:16;;;;;;;3.53;2.40;;;-4.90;99.90;-5.70;98523.00;;;;5003797;28;20438;-70
2022/01/13 01:33:07;;;;;;;1.37;1.27;;;-4.90;99.90;-5.80;98517.00;;;;5005362;28;20439;-72
2022/01/13 01:35:57;;;;;;;1.33;1.23;;;-4.80;99.90;-6.70;98513.00;;;;5004256;28;20421;-72
2022/01/13 01:38:48;;;;;;;2.07;1.80;;;-5.00;99.90;-6.70;98507.00;;;;5005091;28;20429;-71
2022/01/13 01:41:40;;;;;;;1.10;1.10;;;-5.20;99.90;-6.80;98506.00;;;;5003029;28;20445;-72
2022/01/13 01:44:34;;;;;;;1.87;1.70;;;-5.30;99.90;-6.50;98507.00;;;;5004388;28;20429;-72
2022/01/13 01:47:26;;;;;;;3.97;1.70;;;-5.40;99.90;-6.10;98522.00;;;;4996696;28;20424;-72
2022/01/13 01:50:20;;;;;;;1.37;1.27;;;-5.30;99.90;-6.40;98510.00;;;;4997020;28;20435;-73
2022/01/13 01:53:08;;;;;;;2.70;1.97;;;-5.30;99.90;-6.50;98508.00;;;;5005001;28;20421;-72
2022/01/13 01:55:58;;;;;;;1.30;1.20;;;-5.30;99.90;-6.30;98518.00;;;;5003831;28;20453;-71
2022/01/13 01:58:47;;;;;;;1.00;1.00;;;-5.30;99.90;-6.20;98527.00;;;;5001430;28;20437;-72
2022/01/13 02:01:36;;;;;;;1.40;1.30;;;-5.30;99.90;-6.20;98529.00;;;;5003698;28;20825;-73
2022/01/13 02:04:26;;;;;;;1.40;1.20;;;-5.10;99.90;-6.30;98523.00;;;;5005021;28;20949;-70
2022/01/13 02:07:17;;;;;;;1.90;1.80;;;-5.10;99.90;-6.10;98506.00;;;;5004824;28;20437;-71
2022/01/13 02:10:07;;;;;;;1.60;1.50;;;-5.10;99.90;-6.00;98521.00;;;;5008654;28;20433;-71
2022/01/13 02:13:03;;;;;;;1.63;1.47;;;-5.10;99.90;-6.50;98496.00;;;;5007524;28;20431;-72
2022/01/13 02:16:02;;;;;;;2.53;1.43;;;-5.10;99.90;-6.50;98498.00;;;;4994538;28;20466;-71
2022/01/13 02:18:51;;;;;;;0.80;0.80;;;-5.30;99.90;-6.70;98497.00;;;;5006672;28;20421;-71
2022/01/13 02:21:41;;;;;;;1.03;1.00;;;-5.30;99.90;-6.50;98485.00;;;;4965730;28;1193985;-72
2022/01/13 02:24:31;;;;;;;1.08;1.08;;;-5.40;99.90;-6.30;98499.00;;;;5006167;28;20216;-71
2022/01/13 02:27:20;;;;;;;1.07;1.07;;;-5.30;99.90;-6.40;98494.00;;;;5010208;28;20217;-73
2022/01/13 02:30:10;;;;;;;1.80;1.70;;;-5.20;99.90;-6.50;98482.00;;;;5008059;28;21133;-70
2022/01/13 02:32:59;;;;;;;1.53;1.30;;;-5.30;99.90;-6.50;98480.00;;;;5008860;28;20429;-73
2022/01/13 02:35:48;;;;;;;1.57;1.47;;;-5.30;99.90;-6.70;98481.00;;;;5008866;28;20472;-73
2022/01/13 02:38:38;;;;;;;1.43;1.30;;;-5.40;99.90;-6.60;98474.00;;;;5008513;28;20429;-73
2022/01/13 02:41:28;;;;;;;1.73;1.60;;;-5.40;99.90;-6.30;98483.00;;;;5018405;28;20456;-73
2022/01/13 02:44:21;;;;;;;2.07;1.03;;;-5.40;99.90;-6.40;98469.00;;;;5016754;28;20973;-75
2022/01/13 02:47:20;;;;;;;1.13;1.13;;;-5.40;99.90;-6.50;98461.00;;;;5004813;28;20452;-76
2022/01/13 02:50:25;;;;;;;1.20;1.10;;;-5.40;99.90;-6.30;98467.00;;;;5001377;28;20511;-73
2022/01/13 02:53:14;;;;;;;0.83;0.83;;;-5.40;99.90;-6.50;98456.00;;;;5008706;28;20436;-72
2022/01/13 02:56:05;;;;;;;0.97;0.97;;;-5.30;99.90;-6.60;98457.00;;;;5008860;28;20822;-75
2022/01/13 02:58:54;;;;;;;2.20;1.33;;;-5.40;99.90;-7.10;98446.00;;;;5007307;28;20429;-75
2022/01/13 03:01:43;;;;;;;1.07;0.97;;;-5.60;99.90;-6.90;98436.00;;;;5007631;28;20467;-75
2022/01/13 03:04:32;;;;;;;1.57;1.47;;;-5.60;99.90;-6.90;98451.00;;;;5009058;28;20440;-75
2022/01/13 03:07:22;;;;;;;0.97;0.90;;;-5.60;99.90;-7.20;98452.00;;;;5008668;28;20432;-73
2022/01/13 03:10:12;;;;;;;1.43;1.23;;;-5.70;99.90;-6.90;98460.00;;;;5008636;28;20433;-74
2022/01/13 03:13:03;;;;;;;4.80;1.47;;;-5.80;99.90;-6.60;98463.00;;;;5008122;28;20937;-73
2022/01/13 03:15:52;;;;;;;1.20;1.10;;;-5.80;99.90;-6.70;98458.00;;;;5007859;28;20483;-74
2022/01/13 03:18:41;;;;;;;1.77;1.47;;;-5.70;99.90;-6.80;98453.00;;;;5008135;28;20433;-74
2022/01/13 03:21:30;;;;;;;3.13;1.30;;;-5.70;99.90;-6.90;98457.00;;;;5005487;28;20460;-75
2022/01/13 03:24:19;;;;;;;1.87;1.77;;;-5.70;99.90;-6.80;98446.00;;;;5002553;28;20421;-75
2022/01/13 03:27:12;;;;;;;5.87;1.30;;;-5.80;99.90;-6.70;98451.00;;;;5007757;28;20944;-74
2022/01/13 03:30:06;;;;;;;3.30;1.87;;;-5.80;99.90;-6.80;98450.00;;;;5008248;28;20433;-75
2022/01/13 03:32:55;;;;;;;1.03;1.03;;;-5.70;99.90;-7.00;98453.00;;;;5008168;28;20457;-75
2022/01/13 03:35:44;;;;;;;1.10;1.10;;;-5.70;99.90;-6.90;98445.00;;;;5007033;28;20469;-74
2022/01/13 03:38:33;;;;;;;1.50;1.50;;;-5.70;99.90;-6.70;98467.00;;;;5008255;28;20440;-76
2022/01/13 03:41:23;;;;;;;1.00;1.00;;;-5.70;99.90;-7.20;98457.00;;;;5007592;28;20453;-74
2022/01/13 03:44:27;;;;;;;1.50;1.40;;;-5.70;99.90;-7.00;98459.00;;;;5008153;28;20430;-74
2022/01/13 03:47:18;;;;;;;1.90;1.70;;;-5.80;99.90;-7.00;98461.00;;;;5001494;28;20818;-75
2022/01/13 03:50:07;;;;;;;1.95;1.05;;;-5.80;99.90;-7.20;98452.00;;;;5006254;28;20430;-73
2022/01/13 03:53:48;;;;;;;1.00;1.00;;;-5.90;99.90;-6.80;98482.00;;;;5007420;28;20238;-76
2022/01/13 03:57:53;;;;;;;1.15;1.15;;;-5.90;99.90;-6.60;98487.00;;;;4996598;28;20480;-74
2022/01/13 04:01:49;;;;;;;1.13;1.13;;;-5.80;99.90;-6.60;98495.00;;;;5006104;28;20214;-74
2022/01/13 04:04:42;;;;;;;0.93;0.93;;;-5.80;99.90;-6.40;98510.00;;;;5008291;28;20197;-76
2022/01/13 04:07:31;;;;;;;1.90;1.60;;;-5.60;99.90;-6.40;98517.00;;;;5007782;28;20445;-76
2022/01/13 04:11:16;;;;;;;1.47;1.10;;;-5.60;99.90;-7.00;98463.00;;;;5006815;28;20209;-75
2022/01/13 04:14:06;;;;;;;1.53;1.43;;;-5.60;99.90;-7.50;98469.00;;;;5007304;28;20440;-72
2022/01/13 04:16:57;;;;;;;10.00;2.95;;;-5.80;99.90;-7.30;98486.00;;;;5006674;28;20444;-75
2022/01/13 04:19:49;;;;;;;3.77;1.67;;;-5.90;99.90;-7.20;98492.00;;;;5007120;28;20292;-74
2022/01/13 04:22:38;;;;;;;3.83;2.10;;;-6.00;99.90;-7.00;98493.00;;;;5004490;28;20476;-76
2022/01/13 04:25:27;;;;;;;4.03;2.45;;;-6.00;99.90;-6.90;98492.00;;;;5006228;28;20421;-73
2022/01/13 04:28:16;;;;;;;5.03;2.63;;;-5.90;99.90;-6.70;98488.00;;;;5006906;28;20202;-73
2022/01/13 04:31:05;;;;;;;4.30;2.67;;;-5.90;99.90;-6.90;98479.00;;;;5005830;28;20445;-75
2022/01/13 04:33:53;;;;;;;7.37;4.73;;;-5.90;99.90;-6.70;98501.00;;;;5007011;28;20429;-74
2022/01/13 04:36:44;;;;;;;5.37;3.73;;;-5.80;99.90;-6.80;98494.00;;;;5006104;28;20476;-75
2022/01/13 04:39:33;;;;;;;2.70;2.47;;;-5.70;99.90;-7.50;98485.00;;;;5006715;28;20433;-75
2022/01/13 04:42:22;;;;;;;1.37;1.07;;;-5.80;99.90;-7.40;98483.00;;;;5006131;28;20459;-76
2022/01/13 04:45:12;;;;;;;2.45;1.80;;;-6.00;99.90;-7.20;98497.00;;;;5004394;28;20430;-75
2022/01/13 04:48:00;;;;;;;1.10;1.10;;;-6.00;99.90;-7.30;98490.00;;;;5006840;28;20429;-76
2022/01/13 04:50:50;;;;;;;1.13;1.13;;;-6.10;99.90;-7.20;98507.00;;;;4991731;28;20446;-73
2022/01/13 04:53:40;;;;;;;1.70;1.20;;;-6.10;99.90;-6.90;98509.00;;;;4998057;28;20203;-73
2022/01/13 04:56:32;;;;;;;1.13;1.13;;;-6.10;99.90;-6.80;98519.00;;;;5004157;28;20233;-74
2022/01/13 04:59:21;;;;;;;1.63;1.50;;;-6.00;99.90;-6.90;98516.00;;;;5004082;28;20995;-75
2022/01/13 05:02:10;;;;;;;3.05;1.70;;;-5.90;99.90;-7.40;98503.00;;;;5005501;28;20224;-74
2022/01/13 05:04:59;;;;;;;1.88;1.77;;;-6.00;99.90;-7.20;98501.00;;;;5005374;28;20275;-74
2022/01/13 05:07:48;;;;;;;2.10;1.42;;;-6.00;99.90;-7.20;98499.00;;;;5005272;28;20209;-75
2022/01/13 05:10:38;;;;;;;2.70;2.00;;;-6.10;99.90;-7.70;98493.00;;;;5004861;28;20681;-75
2022/01/13 05:13:27;;;;;;;1.27;1.27;;;-6.20;99.90;-7.50;98507.00;;;;5006869;28;20956;-75
2022/01/13 05:16:21;;;;;;;1.90;1.65;;;-6.20;99.90;-7.60;98495.00;;;;4999771;28;20841;-75
2022/01/13 05:19:15;;;;;;;5.20;2.00;;;-6.20;99.90;-7.40;98512.00;;;;5004622;28;20276;-73
2022/01/13 05:22:16;;;;;;;1.97;1.60;;;-6.40;99.90;-7.50;98512.00;;;;4995974;28;20245;-73
2022/01/13 05:25:06;;;;;;;6.95;1.52;;;-6.40;99.90;-7.40;98508.00;;;;5005082;28;20425;-75
2022/01/13 05:27:57;;;;;;;1.50;1.40;;;-6.40;99.90;-7.70;98494.00;;;;4999581;28;20199;-74
2022/01/13 05:30:45;;;;;;;4.20;2.47;;;-6.40;99.90;-7.40;98515.00;;;;5004411;28;20208;-74
2022/01/13 05:33:34;;;;;;;1.77;1.63;;;-6.40;99.90;-7.20;98512.00;;;;5005782;28;20968;-74
2022/01/13 05:36:23;;;;;;;3.65;1.75;;;-6.30;99.90;-7.20;98525.00;;;;5003154;28;20697;-76
2022/01/13 05:39:13;;;;;;;3.75;2.85;;;-6.30;99.90;-7.30;98549.00;;;;4996754;28;20206;-74
2022/01/13 05:42:01;;;;;;;1.08;1.08;;;-6.20;99.90;-7.70;98528.00;;;;5002567;28;20218;-75
2022/01/13 05:44:52;;;;;;;5.75;1.65;;;-6.30;99.90;-7.70;98525.00;;;;5004527;28;20198;-75
2022/01/13 05:47:41;;;;;;;5.50;3.45;;;-6.30;99.90;-7.70;98540.00;;;;5006694;28;20260;-75
2022/01/13 05:50:32;;;;;;;1.75;1.65;;;-6.30;99.90;-7.60;98540.00;;;;5005121;28;20267;-77
2022/01/13 05:53:21;;;;;;;2.42;2.22;;;-6.40;99.90;-7.40;98555.00;;;;5007122;28;20592;-75
2022/01/13 05:56:10;;;;;;;1.30;1.30;;;-6.20;99.90;-7.10;98545.00;;;;5006669;28;20241;-74
2022/01/13 05:58:59;;;;;;;2.65;1.90;;;-6.20;99.90;-7.10;98538.00;;;;4999647;28;20202;-73
2022/01/13 06:01:49;;;;;;;2.05;1.95;;;-6.10;99.90;-7.40;98530.00;;;;5002125;28;20233;-75
2022/01/13 06:04:38;;;;;;;1.85;1.75;;;-6.20;99.90;-7.40;98541.00;;;;5006892;28;20565;-75
2022/01/13 06:07:27;;;;;;;1.88;1.55;;;-6.20;99.90;-7.20;98539.00;;;;5005426;28;20208;-75
2022/01/13 06:10:19;;;;;;;2.63;1.35;;;-6.20;99.90;-7.20;98534.00;;;;5005758;28;20213;-77
2022/01/13 06:13:08;;;;;;;2.83;2.63;;;-6.10;99.90;-7.20;98519.00;;;;5007030;28;20198;-74
2022/01/13 06:15:57;;;;;;;2.13;2.03;;;-6.10;99.90;-7.40;98528.00;;;;5003387;28;20222;-73
2022/01/13 06:18:47;;;;;;;1.90;1.50;;;-6.10;99.90;-7.20;98544.00;;;;5006528;28;20206;-73
2022/01/13 06:21:36;;;;;;;3.05;2.47;;;-6.10;99.90;-7.20;98550.00;;;;5005183;28;20237;-75
2022/01/13 06:24:25;;;;;;;4.43;1.58;;;-6.10;99.90;-7.70;98524.00;;;;5006279;28;20687;-76
2022/01/13 06:27:14;;;;;;;1.90;1.20;;;-6.20;99.90;-7.50;98531.00;;;;5005329;28;20722;-76
2022/01/13 06:30:06;;;;;;;1.67;1.58;;;-6.20;99.90;-7.30;98539.00;;;;5004751;28;20620;-75
2022/01/13 06:32:54;;;;;;;4.53;3.75;;;-6.20;99.90;-7.10;98543.00;;;;5005377;28;20232;-77
2022/01/13 06:35:46;;;;;;;11.18;10.15;;;-6.10;99.90;-7.60;98549.00;;;;5004250;28;20206;-74
2022/01/13 06:38:35;;;;;;;3.30;1.85;;;-6.10;99.90;-7.70;98539.00;;;;5007120;28;20198;-77
2022/01/13 06:41:24;;;;;;;1.00;1.00;;;-6.30;99.90;-7.30;98546.00;;;;5005042;28;20230;-77
2022/01/13 06:44:13;;;;;;;2.80;1.60;;;-6.30;99.90;-7.10;98553.00;;;;5005366;28;20208;-73
2022/01/13 06:47:02;;;;;;;2.28;2.08;;;-6.30;99.90;-7.10;98551.00;;;;5004506;28;20214;-75
2022/01/13 06:49:51;;;;;;;2.42;2.08;;;-6.20;99.90;-7.10;98547.00;;;;5004764;28;20202;-74
2022/01/13 06:52:41;;;;;;;1.05;1.05;;;-6.20;99.90;-7.60;98536.00;;;;5004651;28;20225;-74
2022/01/13 06:55:30;;;;;;;4.00;2.25;;;-6.20;99.90;-7.30;98545.00;;;;5007402;28;20211;-74
2022/01/13 06:58:19;;;;;;;2.03;1.83;;;-6.20;99.90;-7.30;98543.00;;;;5003632;28;20210;-74
2022/01/13 07:01:08;;;;;;;2.20;1.73;;;-6.20;99.90;-7.30;98554.00;;;;5007605;28;20222;-76
2022/01/13 07:03:58;;;;;;;1.92;1.67;;;-6.30;99.90;-7.30;98554.00;;;;5008600;28;20440;-76
2022/01/13 07:06:47;;;;;;;5.30;2.78;;;-6.20;99.90;-7.40;98552.00;;;;4998765;28;20212;-75
2022/01/13 07:09:38;;;;;;;1.40;1.30;;;-6.30;99.90;-7.60;98556.00;;;;5001964;28;20210;-75
2022/01/13 07:12:27;;;;;;;4.70;2.70;;;-6.30;99.90;-7.90;98551.00;;;;5007809;28;20976;-76
2022/01/13 07:15:16;;;;;;;10.60;6.55;;;-6.30;99.90;-7.40;98545.00;;;;5008356;28;20449;-76
2022/01/13 07:18:05;;;;;;;3.27;2.47;;;-7.70;99.90;-7.30;98556.00;;;;4998978;28;20225;-74
2022/01/13 07:20:54;;;;;;;2.50;2.10;;;-6.30;99.90;-7.80;98558.00;;;;5008097;28;20475;-76
2022/01/13 07:23:44;;;;;;;4.37;3.40;;;-6.40;99.90;-7.30;98573.00;;;;5009839;28;20201;-75
2022/01/13 07:26:34;;;;;;;4.20;3.90;;;-6.40;99.90;-7.50;98560.00;;;;5008522;28;20429;-74
2022/01/13 07:29:23;;;;;;;3.27;2.90;;;-6.30;99.90;-7.60;98566.00;;;;5008638;28;20208;-75
2022/01/13 07:32:12;;;;;;;2.20;2.00;;;-6.30;99.90;-7.60;98571.00;;;;5007377;28;20449;-75
2022/01/13 07:35:01;;;;;;;4.10;1.42;;;-6.30;99.90;-7.70;98579.00;;;;5005409;28;20209;-77
2022/01/13 07:37:51;;;;;;;3.33;3.13;;;-6.30;99.90;-7.90;98562.00;;;;5008311;28;20238;-77
2022/01/13 07:40:39;;;;;;;5.20;2.08;;;-6.30;99.90;-7.70;98569.00;;;;5007493;28;20225;-75
2022/01/13 07:43:30;;;;;;;1.30;1.25;;;-6.30;99.90;-7.50;98573.00;;;;5008305;28;20210;-75
2022/01/13 07:46:20;;;;;;;5.80;3.38;;;-6.30;99.90;-7.20;98573.00;;;;5000830;28;20210;-74
2022/01/13 07:49:09;;;;;;;3.33;2.35;;;-6.20;99.90;-7.50;98568.00;;;;4996384;28;20657;-78
2022/01/13 07:51:58;;;;;;;1.75;1.65;;;-6.00;99.90;-7.40;98572.00;;;;5007143;28;20697;-74
2022/01/13 07:54:47;;;;;;;2.60;1.80;;;-6.10;99.90;-7.40;98567.00;;;;5007395;28;20236;-74
2022/01/13 07:57:36;;;;;;;6.78;2.17;;;-6.00;99.90;-7.20;98574.00;;;;5002935;28;20458;-74
2022/01/13 08:00:26;;;;;;;2.13;1.98;;;-6.00;99.90;-7.10;98575.00;;;;5001773;28;20243;-76
2022/01/13 08:03:15;;;;;;;3.95;1.90;;;-5.90;99.90;-7.20;98568.00;;;;5008175;28;20209;-74
2022/01/13 08:06:05;;;;;;;2.35;1.65;;;-5.90;99.90;-7.00;98582.00;;;;5006344;28;20465;-75
2022/01/13 08:08:54;;;;;;;2.63;2.40;;;-5.80;99.90;-6.60;98588.00;;;;4979037;28;20209;-75
2022/01/13 08:11:44;;;;;;;1.05;1.05;;;-5.70;99.90;-7.10;98578.00;;;;5006371;28;20226;-76
2022/01/13 08:14:33;;;;;;;2.40;1.17;;;-5.70;99.90;-6.70;98582.00;;;;4997533;28;20201;-75
2022/01/13 08:20:31;;;;;;;1.02;0.98;;;-5.60;99.90;-6.60;98576.00;;;;5007018;28;20429;-75
2022/01/13 08:23:20;;;;;;;1.00;1.00;;;-5.50;99.90;-6.20;98571.00;;;;5007533;28;20220;-75
2022/01/13 08:26:09;;;;;;;2.10;1.90;;;-5.30;99.90;-6.00;98579.00;;;;5007862;28;20429;-74
2022/01/13 08:29:22;;;;;;;2.17;1.97;;;-5.20;99.90;-5.90;98579.00;;;;5001701;28;20437;-75
2022/01/13 08:32:11;;;;;;;2.10;1.87;;;-5.00;99.90;-5.60;98572.00;;;;5006401;28;20548;-75
2022/01/13 08:35:01;;;;;;;1.33;1.30;;;-4.80;99.90;-5.50;98570.00;;;;5006235;28;20436;-75
2022/01/13 08:37:50;;;;;;;2.03;1.40;;;-3.80;99.90;-5.10;98569.00;;;;5007002;28;20483;-75
2022/01/13 08:40:39;;;;;;;1.97;1.83;;;-4.50;99.90;-4.90;98568.00;;;;5006253;28;20805;-76
2022/01/13 08:43:29;;;;;;;1.67;1.10;;;-4.30;99.50;-4.70;98594.00;;;;5007938;28;20452;-76
2022/01/13 08:46:18;;;;;;;2.87;1.70;;;-4.10;99.40;-4.60;98595.00;;;;5002803;28;20545;-75
2022/01/13 08:49:09;;;;;;;2.57;1.80;;;-3.90;99.50;-4.90;98594.00;;;;5007236;28;20564;-76
2022/01/13 08:51:59;;;;;;;4.87;2.13;;;-3.80;99.80;-4.50;98604.00;;;;5006855;28;20452;-75
2022/01/13 08:54:48;;;;;;;3.37;2.17;;;-3.70;99.90;-4.40;98603.00;;;;5006952;28;20491;-76
2022/01/13 08:57:38;;;;;;;3.30;2.17;;;-3.70;99.90;-4.70;98611.00;;;;5001530;28;20595;-75
2022/01/13 09:00:27;;;;;;;3.20;2.00;;;-3.60;99.90;-5.00;98606.00;;;;5005747;28;20960;-75
2022/01/13 09:03:17;;;;;;;3.70;1.13;;;-3.70;99.90;-4.70;98600.00;;;;5006947;28;20429;-75
2022/01/13 09:06:06;;;;;;;4.80;1.87;;;-3.70;98.50;-4.20;98614.00;;;;5006788;28;20498;-75
2022/01/13 09:08:57;;;;;;;1.97;1.87;;;-3.60;98.60;-4.10;98601.00;;;;5005321;28;20429;-76
2022/01/13 09:11:46;;;;;;;2.17;1.63;;;-3.40;98.70;-4.30;98606.00;;;;5006349;28;20999;-76
2022/01/13 09:14:38;;;;;;;2.20;1.93;;;-3.30;98.80;-4.20;98619.00;;;;5005281;28;20441;-76
2022/01/13 09:17:26;;;;;;;7.43;2.83;;;-3.30;97.70;-3.80;98612.00;;;;5005743;28;20483;-75
2022/01/13 09:20:16;;;;;;;1.60;1.60;;;-3.20;96.30;-3.60;98618.00;;;;5004195;28;20455;-75
2022/01/13 09:23:05;;;;;;;7.73;3.00;;;-3.00;95.90;-3.10;98622.00;;;;5005451;28;20444;-75
2022/01/13 09:25:58;;;;;;;5.63;2.43;;;-2.80;96.10;-3.00;98628.00;;;;5005822;28;20437;-75
2022/01/13 09:28:47;;;;;;;3.03;2.80;;;-2.60;95.20;-2.60;98632.00;;;;5002988;28;20421;-77
2022/01/13 09:31:38;;;;;;;3.17;2.17;;;-2.40;93.60;-2.30;98630.00;;;;5002347;28;20453;-76
2022/01/13 09:34:27;;;;;;;4.10;2.83;;;-2.10;93.30;-2.10;98640.00;;;;4996187;28;20936;-77
2022/01/13 09:37:16;;;;;;;5.87;2.63;;;-1.90;93.20;-2.10;98658.00;;;;5005280;28;20433;-75
2022/01/13 09:40:09;;;;;;;9.63;3.33;;;-1.70;91.30;-2.00;98658.00;;;;5006011;28;20447;-75
2022/01/13 09:43:01;;;;;;;2.80;2.13;;;-1.50;91.00;-2.20;98641.00;;;;5004918;28;20847;-77
2022/01/13 09:45:51;;;;;;;2.13;1.93;;;-1.40;91.50;-2.40;98639.00;;;;5005036;28;20425;-74
2022/01/13 09:48:43;;;;;;;4.53;1.93;;;-1.20;90.50;-2.20;98653.00;;;;5006594;28;20432;-75
2022/01/13 09:51:33;;;;;;;7.40;2.27;;;-1.50;89.70;-2.20;98654.00;;;;5005004;28;20445;-75
2022/01/13 09:54:22;;;;;;;1.93;1.60;;;-1.50;90.00;-2.40;98658.00;;;;5006843;28;20455;-75
2022/01/13 09:57:11;;;;;;;2.80;1.83;;;-1.50;85.10;-2.10;98664.00;;;;5003136;28;20426;-76
2022/01/13 10:00:01;;;;;;;1.50;1.00;;;-1.40;86.50;-2.40;98653.00;;;;5002645;28;20628;-76
2022/01/13 10:02:50;;;;;;;1.60;1.30;;;-1.40;87.40;-2.00;98655.00;;;;5005244;28;20456;-76
2022/01/13 10:05:49;;;;;;;4.00;1.73;;;-1.30;83.70;-1.70;98635.00;;;;5002272;28;20437;-74
2022/01/13 10:08:44;;;;;;;3.00;1.20;;;-1.30;84.90;-1.40;98642.00;;;;5002744;28;20422;-77
2022/01/13 10:11:38;;;;;;;3.07;1.87;;;-1.00;85.30;-1.50;98642.00;;;;5002063;28;20476;-76
2022/01/13 10:17:46;;;;;;;1.33;1.10;;;-0.70;82.10;-1.00;98638.00;;;;5005240;28;20444;-74
2022/01/13 10:20:35;;;;;;;2.40;1.60;;;-0.50;80.20;-0.50;98637.00;;;;5006125;28;20816;-74
2022/01/13 10:23:24;;;;;;;4.10;2.40;;;-0.30;80.30;0.10;98653.00;;;;5005951;28;20429;-76
2022/01/13 10:26:14;;;;;;;1.57;1.40;;;0.00;80.00;0.00;98634.00;;;;5005892;28;20425;-76
2022/01/13 10:29:07;;;;;;;2.90;1.30;;;0.30;78.70;0.30;98633.00;;;;5005976;28;20440;-76
2022/01/13 10:31:56;;;;;;;2.23;1.30;;;0.60;78.20;1.00;98635.00;;;;5008395;28;20455;-74
2022/01/13 10:34:50;;;;;;;2.07;1.43;;;0.90;76.40;1.40;98628.00;;;;5006419;28;20451;-75
2022/01/13 10:37:40;;;;;;;4.20;2.03;;;1.60;73.70;1.90;98635.00;;;;5007182;28;20820;-75
2022/01/13 10:40:34;;;;;;;4.50;2.30;;;2.30;72.20;2.60;98618.00;;;;5003068;28;20440;-75
2022/01/13 10:43:26;;;;;;;3.60;2.20;;;3.00;72.90;2.90;98616.00;;;;5004794;28;20486;-75
2022/01/13 10:46:15;;;;;;;3.70;2.27;;;3.80;69.70;3.40;98618.00;;;;5008428;28;20436;-75
2022/01/13 10:49:09;;;;;;;5.80;2.37;;;4.50;67.40;3.80;98606.00;;;;5008031;28;20205;-75
2022/01/13 10:52:24;;;;;;;5.87;2.23;;;5.00;65.00;3.80;98587.00;;;;5008769;28;20441;-74
2022/01/13 10:55:16;;;;;;;2.50;2.30;;;5.40;64.60;3.90;98593.00;;;;5008449;28;20432;-75
2022/01/13 10:58:27;;;;;;;6.33;2.73;;;5.50;62.30;5.30;98588.00;;;;5000811;28;20221;-75
2022/01/13 11:01:16;;;;;;;7.37;2.77;;;5.70;62.70;6.30;98588.00;;;;5008132;28;20218;-74
2022/01/13 11:04:16;;;;;;;8.27;3.07;;;6.20;63.20;6.20;98591.00;;;;5003988;28;20213;-75
2022/01/13 11:07:21;;;;;;;8.33;3.27;;;6.70;58.00;6.50;98595.00;;;;5001222;28;20614;-75
2022/01/13 11:10:10;;;;;;;5.67;3.17;;;7.20;58.10;7.20;98586.00;;;;5007102;28;20209;-75
2022/01/13 11:13:02;;;;;;;4.00;3.20;;;7.60;57.40;7.80;98579.00;;;;5008740;28;20209;-74
2022/01/13 11:15:55;;;;;;;8.27;3.17;;;8.10;56.20;7.90;98580.00;;;;5007974;28;20679;-74
2022/01/13 11:18:44;;;;;;;3.40;2.93;;;8.20;54.80;8.20;98571.00;;;;5008781;28;20272;-75
2022/01/13 11:21:34;;;;;;;9.33;2.73;;;8.40;54.60;8.10;98568.00;;;;5008372;28;20253;-76
2022/01/13 11:24:25;;;;;;;4.13;3.70;;;8.50;52.70;8.10;98563.00;;;;5008608;28;20203;-76
2022/01/13 11:27:18;;;;;;;5.53;2.60;;;8.80;52.50;8.00;98561.00;;;;5007975;28;20220;-79
2022/01/13 11:30:11;;;;;;;6.10;3.40;;;9.00;50.10;9.10;98567.00;;;;5007858;28;20576;-78
2022/01/13 11:33:00;;;;;;;7.73;3.77;;;9.10;51.00;9.40;98550.00;;;;5008156;28;20591;-78
2022/01/13 11:35:55;;;;;;;5.33;3.30;;;9.50;51.70;9.20;98551.00;;;;5008447;28;20763;-79
2022/01/13 11:38:56;;;;;;;8.23;3.30;;;9.80;50.00;9.30;98554.00;;;;5005427;28;20706;-77
2022/01/13 11:42:07;;;;;;;5.47;2.50;;;9.90;49.90;9.60;98555.00;;;;5000225;28;20597;-78
2022/01/13 11:45:38;;;;;;;7.57;3.20;;;9.90;49.80;9.60;98546.00;;;;5006804;28;20206;-78
2022/01/13 11:48:30;;;;;;;16.97;3.40;;;8.80;49.20;9.70;98547.00;;;;5007234;28;20284;-77
2022/01/13 11:51:21;;;;;;;10.43;3.23;;;9.90;49.70;9.80;98561.00;;;;5007713;28;20248;-77
2022/01/13 11:54:10;;;;;;;3.70;2.33;;;9.90;48.50;9.70;98559.00;;;;5008591;28;20198;-77
2022/01/13 11:57:18;;;;;;;6.63;2.90;;;10.00;48.40;9.40;98548.00;;;;5004825;28;20212;-78
2022/01/13 12:00:33;;;;;;;5.17;2.33;;;9.90;47.70;8.70;98552.00;;;;5004079;28;20222;-77
2022/01/13 12:03:29;;;;;;;7.60;2.20;;;9.50;47.30;8.20;98552.00;;;;4990966;28;20685;-77
2022/01/13 12:06:44;;;;;;;7.17;1.90;;;9.20;46.40;8.00;98551.00;;;;5004534;28;20204;-77
2022/01/13 12:09:40;;;;;;;4.07;2.10;;;8.80;47.40;8.00;98558.00;;;;5001328;28;20206;-76
2022/01/13 12:12:35;;;;;;;7.67;2.27;;;8.50;47.90;7.30;98539.00;;;;5007546;28;20229;-77
2022/01/13 12:15:26;;;;;;;3.27;2.73;;;8.30;48.90;7.60;98536.00;;;;5005897;28;20214;-83
2022/01/13 12:18:15;;;;;;;2.50;2.27;;;8.20;50.30;7.90;98549.00;;;;5003719;28;20202;-77
2022/01/13 12:21:21;;;;;;;3.60;1.90;;;8.20;51.00;6.90;98536.00;;;;5003937;28;20263;-79
2022/01/13 12:24:12;;;;;;;2.77;1.87;;;8.30;51.00;7.30;98551.00;;;;5006991;28;20213;-80
2022/01/13 12:27:05;;;;;;;9.17;2.27;;;8.10;52.30;6.70;98529.00;;;;5002989;28;20209;-77
2022/01/13 12:30:10;;;;;;;3.93;1.97;;;8.00;53.00;6.10;98522.00;;;;5005040;28;20190;-81
2022/01/13 12:33:02;;;;;;;3.70;2.00;;;7.70;51.90;6.80;98527.00;;;;5004488;28;20206;-78
2022/01/13 12:35:51;;;;;;;4.53;1.60;;;7.60;52.20;7.60;98527.00;;;;4995872;28;20601;-78
2022/01/13 12:38:58;;;;;;;2.77;1.87;;;7.70;53.20;7.50;98524.00;;;;5007685;28;20210;-78
2022/01/13 12:42:00;;;;;;;1.80;1.57;;;8.00;53.10;8.00;98524.00;;;;5005425;28;20228;-78
2022/01/13 12:48:04;;;;;;;2.80;1.53;;;8.80;52.30;9.50;98527.00;;;;5006422;28;20202;-78
2022/01/13 12:50:53;;;;;;;3.23;1.63;;;9.50;51.50;10.20;98525.00;;;;5006393;28;20226;-80
2022/01/13 12:53:43;;;;;;;2.97;1.80;;;10.30;50.30;10.20;98529.00;;;;4995826;28;20673;-77
2022/01/13 12:56:32;;;;;;;2.50;1.73;;;11.00;49.30;10.20;98510.00;;;;5006285;28;20298;-79
2022/01/13 12:59:24;;;;;;;4.67;2.03;;;11.50;49.20;11.60;98507.00;;;;4998975;28;20217;-79
2022/01/13 13:02:13;;;;;;;2.00;1.73;;;12.00;49.10;12.70;98510.00;;;;5007098;28;20241;-76
2022/01/13 13:05:04;;;;;;;3.40;1.97;;;12.90;47.80;10.70;98506.00;;;;5006255;28;20599;-76